Terminal Aerodrome Forecast
Issued by NWS

Home | Current Version | Previous Version | Text Only | Print | Product List | Glossary On
Versions: 1 2 3 4 5 6 7 8 9 10 11 12 13 14 15 16 17 18
000
FTUS44 KLZK 161700
TAFHOT
TAF
KHOT 161738Z 1618/1718 15009G16KT P6SM BKN250
     FM170000 14003KT P6SM SCT250
     FM171500 15006KT P6SM SCT100 BKN250=

USA.gov is the U.S. government's official web portal to all federal, state and local government web resources and services.